Aviation Digital Data Service (ADDS)

Output produced by METARs form (1825 UTC 25 August 2016)
found at http://aviationweather.gov/adds/metars/
 
KILG 251733Z 2518/2618 20011KT P6SM SCT050 
     FM260000 18006KT P6SM BKN200 
     FM261700 31009KT P6SM FEW030